Acequia, Idaho
Current Conditions -  °F | °C
As of 11:53 PM on Saturday 20 Dec 2014 (Local Time) from KBYI Reporting Station
Light Rain Light Rain  
Wind Chill: 33°   Ceiling: 2200
Heat Index: 40°   Visibility: 8mi
Dew Point: 36°   Wind: 13mph
Humidity: 86%   Direction: 210°SSW
Pressure: 29.94"   Gusts: NA
Location:  42.6416°N, 113.637°W
Report Text: KBYI 210653Z AUTO 21011KT 8SM -RA OVC022 04/02 A2994 RMK AO2 SLP140 P0004 T00440022 400610011
Loading
Personal Weather Stations






























Interactive Weather Map New forecast layout! Learn more

10-Day Weather Forecast

Advertisements
Track Severe Weather on mobile